Time;durP1;ratioP1;P1;durP2;ratioP2;P2;SDS_P1;SDS_P2;PMS_P1;PMS_P2;Temp;Humidity;BMP_temperature;BMP_pressure;BME280_temperature;BME280_humidity;BME280_pressure;Samples;Min_cycle;Max_cycle;Signal;HPM_P1;HPM_P2
2021/03/05 00:01:28;;;;;;;1.58;0.77;;;21.40;53.30;;;;;;5091284;28;20024;-34
2021/03/05 00:03:54;;;;;;;5.05;0.73;;;21.40;53.20;;;;;;5073963;28;20047;-34
2021/03/05 00:06:20;;;;;;;2.53;0.68;;;21.30;53.20;;;;;;5091811;28;20098;-34
2021/03/05 00:08:46;;;;;;;1.75;0.77;;;21.30;53.20;;;;;;5087332;28;20047;-34
2021/03/05 00:11:12;;;;;;;4.38;0.80;;;21.30;53.20;;;;;;5088365;28;20092;-34
2021/03/05 00:13:38;;;;;;;1.65;0.77;;;21.30;53.20;;;;;;5087785;28;20044;-35
2021/03/05 00:16:05;;;;;;;1.25;0.70;;;21.30;53.00;;;;;;5089191;28;20028;-34
2021/03/05 00:18:31;;;;;;;1.90;0.70;;;21.30;53.10;;;;;;5085223;28;20048;-34
2021/03/05 00:20:57;;;;;;;1.38;0.68;;;21.20;53.10;;;;;;5086491;28;20122;-34
2021/03/05 00:23:23;;;;;;;1.60;0.73;;;21.20;53.00;;;;;;5076171;28;20033;-35
2021/03/05 00:25:52;;;;;;;1.88;0.90;;;21.20;53.00;;;;;;5092820;28;20435;-34
2021/03/05 00:28:19;;;;;;;2.55;0.68;;;21.10;52.90;;;;;;5069228;28;20149;-34
2021/03/05 00:30:45;;;;;;;1.90;0.70;;;21.10;53.00;;;;;;5094026;28;20104;-34
2021/03/05 00:33:11;;;;;;;1.50;0.70;;;21.10;52.90;;;;;;5071281;28;20044;-34
2021/03/05 00:35:37;;;;;;;2.03;0.73;;;21.10;53.00;;;;;;5085849;28;20040;-34
2021/03/05 00:38:04;;;;;;;0.70;0.55;;;21.10;52.90;;;;;;5089572;28;20028;-34
2021/03/05 00:40:30;;;;;;;1.38;0.65;;;21.00;53.00;;;;;;5084777;28;20092;-34
2021/03/05 00:42:56;;;;;;;1.90;0.80;;;21.00;53.00;;;;;;5085075;28;20037;-34
2021/03/05 00:45:23;;;;;;;1.10;0.80;;;20.90;53.00;;;;;;5091450;28;20046;-34
2021/03/05 00:47:49;;;;;;;2.08;0.93;;;20.90;53.00;;;;;;5093031;28;20028;-34
2021/03/05 00:50:16;;;;;;;1.73;0.70;;;20.90;53.10;;;;;;5091291;28;20046;-34
2021/03/05 00:52:43;;;;;;;1.30;0.73;;;20.90;53.10;;;;;;5085446;28;20311;-34
2021/03/05 00:55:10;;;;;;;1.45;0.73;;;20.90;53.10;;;;;;5085488;28;20048;-34
2021/03/05 00:57:36;;;;;;;4.10;0.90;;;20.80;53.00;;;;;;5095336;28;20087;-34
2021/03/05 01:00:06;;;;;;;1.13;0.80;;;20.80;53.00;;;;;;5094749;28;20028;-35
2021/03/05 01:02:35;;;;;;;1.50;0.88;;;20.80;53.20;;;;;;5086578;28;20036;-34
2021/03/05 01:05:02;;;;;;;2.00;0.70;;;20.80;53.10;;;;;;5087714;28;20127;-34
2021/03/05 01:07:28;;;;;;;1.40;0.65;;;20.70;53.00;;;;;;5095920;28;20048;-34
2021/03/05 01:09:55;;;;;;;1.85;0.70;;;20.70;53.00;;;;;;5094405;28;20054;-33
2021/03/05 01:12:21;;;;;;;1.63;0.90;;;20.70;53.00;;;;;;5096467;28;20049;-34
2021/03/05 01:14:47;;;;;;;1.07;0.70;;;20.70;53.00;;;;;;5090522;28;20048;-34
2021/03/05 01:17:14;;;;;;;2.17;0.70;;;20.60;53.00;;;;;;5092106;28;20079;-34
2021/03/05 01:19:40;;;;;;;0.90;0.70;;;20.60;53.00;;;;;;5094510;28;20500;-35
2021/03/05 01:22:06;;;;;;;1.73;0.57;;;20.60;53.00;;;;;;5054211;28;20033;-34
2021/03/05 01:24:32;;;;;;;1.25;0.47;;;20.60;53.10;;;;;;5096881;28;20266;-34
2021/03/05 01:26:59;;;;;;;2.25;0.70;;;20.60;53.10;;;;;;5093668;28;20016;-34
2021/03/05 01:29:25;;;;;;;0.98;0.55;;;20.50;53.10;;;;;;5086175;28;20097;-33
2021/03/05 01:31:51;;;;;;;1.02;0.70;;;20.50;53.10;;;;;;5089897;28;20061;-34
2021/03/05 01:34:17;;;;;;;1.98;0.82;;;20.50;53.20;;;;;;5086339;28;20041;-34
2021/03/05 01:36:44;;;;;;;1.63;0.70;;;20.50;53.20;;;;;;5089622;28;20036;-35
2021/03/05 01:39:10;;;;;;;1.70;0.70;;;20.50;53.20;;;;;;5087032;28;20430;-34
2021/03/05 01:41:37;;;;;;;0.77;0.73;;;20.40;53.10;;;;;;5086288;28;20032;-34
2021/03/05 01:44:06;;;;;;;2.53;0.95;;;20.40;53.10;;;;;;5087462;28;20512;-34
2021/03/05 01:46:32;;;;;;;1.13;0.63;;;20.40;53.20;;;;;;5093893;28;20031;-34
2021/03/05 01:48:58;;;;;;;2.20;0.55;;;20.30;53.20;;;;;;5089308;28;20028;-34
2021/03/05 01:51:27;;;;;;;1.40;0.57;;;20.30;53.30;;;;;;5090738;28;20505;-34
2021/03/05 01:53:53;;;;;;;1.27;0.70;;;20.30;53.20;;;;;;5073279;28;20040;-34
2021/03/05 01:56:34;;;;;;;1.23;0.60;;;20.30;53.20;;;;;;5090653;28;20051;-34
2021/03/05 01:59:01;;;;;;;2.80;0.77;;;20.30;53.10;;;;;;5091139;28;20035;-34
2021/03/05 02:01:28;;;;;;;1.55;0.60;;;20.20;53.70;;;;;;5091264;28;20028;-34
2021/03/05 02:03:54;;;;;;;0.93;0.75;;;20.20;53.20;;;;;;5092481;28;20104;-34
2021/03/05 02:06:21;;;;;;;0.80;0.75;;;20.20;53.20;;;;;;5089608;28;20025;-35
2021/03/05 02:08:48;;;;;;;1.05;0.60;;;20.10;53.20;;;;;;5094108;28;20064;-34
2021/03/05 02:11:19;;;;;;;0.68;0.60;;;20.10;53.20;;;;;;5094828;28;20036;-34
2021/03/05 02:13:45;;;;;;;1.65;0.80;;;20.10;53.30;;;;;;5073780;28;20032;-34
2021/03/05 02:16:52;;;;;;;1.35;0.70;;;20.10;53.30;;;;;;5097871;28;20032;-34
2021/03/05 02:19:40;;;;;;;0.82;0.70;;;20.00;53.30;;;;;;5073224;28;20113;-33
2021/03/05 02:22:43;;;;;;;1.45;0.70;;;20.00;53.30;;;;;;5092059;28;20036;-34
2021/03/05 02:25:22;;;;;;;1.80;0.73;;;20.00;53.30;;;;;;5091893;28;20044;-34
2021/03/05 02:28:27;;;;;;;1.10;0.65;;;19.90;53.30;;;;;;5091263;28;21025;-34
2021/03/05 02:31:04;;;;;;;1.13;0.80;;;19.90;53.30;;;;;;5080844;28;21262;-34
2021/03/05 02:33:45;;;;;;;1.08;0.70;;;19.90;53.40;;;;;;5097998;28;20038;-34
2021/03/05 02:36:12;;;;;;;1.95;0.93;;;19.90;53.40;;;;;;5064274;28;20028;-34
2021/03/05 02:38:39;;;;;;;;;;;19.80;53.40;;;;;;5074020;28;20044;-34
2021/03/05 02:41:05;;;;;;;1.50;0.80;;;19.80;53.30;;;;;;5067224;28;20423;-34
2021/03/05 02:43:31;;;;;;;0.85;0.63;;;19.80;53.40;;;;;;5064615;28;20041;-34
2021/03/05 02:46:00;;;;;;;1.00;0.73;;;19.70;53.50;;;;;;5078863;28;20043;-34
2021/03/05 02:48:30;;;;;;;1.20;0.82;;;19.70;53.40;;;;;;5070934;28;20029;-34
2021/03/05 02:51:00;;;;;;;1.27;0.70;;;19.70;53.50;;;;;;5058585;28;20194;-34
2021/03/05 02:53:27;;;;;;;0.88;0.70;;;19.70;53.50;;;;;;5055858;28;20033;-34
2021/03/05 02:55:54;;;;;;;1.55;0.70;;;19.60;53.50;;;;;;5074089;28;20028;-34
2021/03/05 02:58:21;;;;;;;1.10;0.73;;;19.60;53.50;;;;;;5087683;28;20036;-34
2021/03/05 03:00:47;;;;;;;0.50;0.40;;;19.60;53.50;;;;;;5059800;28;20047;-36
2021/03/05 03:03:13;;;;;;;1.45;1.02;;;19.60;53.50;;;;;;5053387;28;20107;-34
2021/03/05 03:05:40;;;;;;;1.20;0.70;;;19.50;53.50;;;;;;5072525;28;20128;-34
2021/03/05 03:08:07;;;;;;;2.20;0.80;;;19.50;53.50;;;;;;5070964;28;20095;-34
2021/03/05 03:10:33;;;;;;;1.63;0.70;;;19.50;53.50;;;;;;5075383;28;20032;-34
2021/03/05 03:13:00;;;;;;;1.00;0.70;;;19.40;53.60;;;;;;5074732;28;20028;-34
2021/03/05 03:15:29;;;;;;;1.17;0.70;;;19.40;53.50;;;;;;5056656;28;20996;-34
2021/03/05 03:17:56;;;;;;;2.97;0.90;;;19.40;53.60;;;;;;5057923;28;20028;-34
2021/03/05 03:20:23;;;;;;;1.58;0.80;;;19.40;53.60;;;;;;5074093;28;20039;-34
2021/03/05 03:22:49;;;;;;;1.98;0.82;;;19.40;53.40;;;;;;5074655;28;20054;-34
2021/03/05 03:25:15;;;;;;;1.20;0.90;;;19.40;53.60;;;;;;5075753;28;20035;-34
2021/03/05 03:27:42;;;;;;;1.07;0.83;;;19.40;53.40;;;;;;5076361;28;20055;-34
2021/03/05 03:30:13;;;;;;;1.75;0.80;;;19.40;53.20;;;;;;5088259;28;20031;-34
2021/03/05 03:32:40;;;;;;;1.80;0.75;;;19.40;53.30;;;;;;5086239;28;20062;-34
2021/03/05 03:35:08;;;;;;;1.40;0.80;;;19.40;53.30;;;;;;5066982;28;20039;-34
2021/03/05 03:37:34;;;;;;;1.35;0.80;;;19.30;53.20;;;;;;5087686;28;20036;-34
2021/03/05 03:40:04;;;;;;;1.10;0.88;;;19.30;53.20;;;;;;5086857;28;20028;-34
2021/03/05 03:42:30;;;;;;;1.55;0.80;;;19.30;53.10;;;;;;5089005;28;20025;-34
2021/03/05 03:44:56;;;;;;;1.98;0.85;;;19.30;53.50;;;;;;5095755;28;20039;-34
2021/03/05 03:47:23;;;;;;;1.58;1.00;;;19.30;53.10;;;;;;5089164;28;20025;-34
2021/03/05 03:49:59;;;;;;;1.25;0.70;;;19.30;53.00;;;;;;5086799;28;20037;-34
2021/03/05 03:52:27;;;;;;;2.15;0.85;;;19.30;53.00;;;;;;5058046;28;20021;-34
2021/03/05 03:54:55;;;;;;;1.27;0.75;;;19.30;53.00;;;;;;5074483;28;20047;-33
2021/03/05 03:57:25;;;;;;;1.65;1.00;;;19.30;53.00;;;;;;5073197;28;20666;-34
2021/03/05 03:59:52;;;;;;;1.63;0.88;;;19.30;53.00;;;;;;5053977;28;20044;-34
2021/03/05 04:02:18;;;;;;;1.40;0.80;;;19.30;53.00;;;;;;5089095;28;20754;-34
2021/03/05 04:04:45;;;;;;;1.40;0.75;;;19.20;52.90;;;;;;5055537;28;20037;-34
2021/03/05 04:07:11;;;;;;;1.15;0.88;;;19.30;52.90;;;;;;5057909;28;20016;-35
2021/03/05 04:09:37;;;;;;;1.33;0.75;;;19.20;52.90;;;;;;5074132;28;20413;-34
2021/03/05 04:12:04;;;;;;;0.70;0.65;;;19.20;53.50;;;;;;5043686;28;20744;-34
2021/03/05 04:14:30;;;;;;;1.65;0.98;;;19.20;52.90;;;;;;5072800;28;20044;-34
2021/03/05 04:16:56;;;;;;;1.45;0.80;;;19.20;53.10;;;;;;5063115;28;20384;-34
2021/03/05 04:19:22;;;;;;;1.17;0.65;;;19.20;53.00;;;;;;5094329;28;20029;-34
2021/03/05 04:21:49;;;;;;;0.80;0.77;;;19.20;53.00;;;;;;5086590;28;20101;-34
2021/03/05 04:24:16;;;;;;;1.67;1.10;;;19.20;53.00;;;;;;5071666;28;20024;-34
2021/03/05 04:26:42;;;;;;;1.55;0.70;;;19.20;53.10;;;;;;5069796;28;20025;-33
2021/03/05 04:29:08;;;;;;;2.00;0.90;;;19.20;53.00;;;;;;5091784;28;20854;-32
2021/03/05 04:31:35;;;;;;;2.22;0.70;;;19.20;53.10;;;;;;5087529;28;20111;-34
2021/03/05 04:34:01;;;;;;;1.45;0.80;;;19.20;53.10;;;;;;5092105;28;20040;-33
2021/03/05 04:36:27;;;;;;;1.30;0.80;;;19.20;53.10;;;;;;5092707;28;20038;-33
2021/03/05 04:38:53;;;;;;;1.05;0.90;;;19.20;53.00;;;;;;5087982;28;20029;-34
2021/03/05 04:41:19;;;;;;;0.75;0.63;;;19.20;53.10;;;;;;5087761;28;20021;-34
2021/03/05 04:43:45;;;;;;;2.42;0.80;;;19.20;53.00;;;;;;5092211;28;20100;-34
2021/03/05 04:46:12;;;;;;;1.30;0.70;;;19.20;53.00;;;;;;5094886;28;20024;-34
2021/03/05 04:48:38;;;;;;;1.23;0.75;;;19.20;53.00;;;;;;5088582;28;20034;-34
2021/03/05 04:51:04;;;;;;;1.00;0.82;;;19.10;53.00;;;;;;5093383;28;20028;-33
2021/03/05 04:53:30;;;;;;;2.60;0.90;;;19.10;52.90;;;;;;5088055;28;20076;-34
2021/03/05 04:55:56;;;;;;;1.35;0.90;;;19.10;52.90;;;;;;5089646;28;20055;-35
2021/03/05 04:58:22;;;;;;;1.23;0.75;;;19.10;53.00;;;;;;5086428;28;20164;-34
2021/03/05 05:00:48;;;;;;;1.00;0.77;;;19.10;52.90;;;;;;5084142;28;20408;-34
2021/03/05 05:03:15;;;;;;;2.08;1.00;;;19.10;53.10;;;;;;5088443;28;20081;-34
2021/03/05 05:05:41;;;;;;;0.70;0.70;;;19.10;53.00;;;;;;5088255;28;20036;-34
2021/03/05 05:08:07;;;;;;;1.20;0.82;;;19.10;53.00;;;;;;5087717;28;20057;-34
2021/03/05 05:10:33;;;;;;;1.07;0.80;;;19.10;53.00;;;;;;5075277;28;20046;-34
2021/03/05 05:13:00;;;;;;;1.45;0.80;;;19.10;52.90;;;;;;5088208;28;20052;-34
2021/03/05 05:15:26;;;;;;;1.23;0.90;;;19.00;53.50;;;;;;5088958;28;20054;-34
2021/03/05 05:17:52;;;;;;;0.98;0.70;;;19.00;53.00;;;;;;5084128;28;20024;-34
2021/03/05 05:20:18;;;;;;;2.55;0.98;;;19.00;52.90;;;;;;5091230;28;20056;-34
2021/03/05 05:22:44;;;;;;;0.88;0.80;;;19.00;53.00;;;;;;5091669;28;20090;-34
2021/03/05 05:25:11;;;;;;;0.90;0.80;;;19.00;52.90;;;;;;5088303;28;20087;-34
2021/03/05 05:27:37;;;;;;;0.83;0.77;;;19.00;53.00;;;;;;5088900;28;20062;-34
2021/03/05 05:30:04;;;;;;;1.25;0.80;;;19.00;52.90;;;;;;5085099;28;20080;-33
2021/03/05 05:32:30;;;;;;;1.40;0.93;;;19.00;52.90;;;;;;5087960;28;20029;-34
2021/03/05 05:34:57;;;;;;;1.05;0.80;;;19.00;53.00;;;;;;5093941;28;20040;-34
2021/03/05 05:37:23;;;;;;;1.10;0.90;;;19.00;53.00;;;;;;5089800;28;20020;-34
2021/03/05 05:39:49;;;;;;;1.85;1.15;;;19.00;53.00;;;;;;5087191;28;20031;-33
2021/03/05 05:42:16;;;;;;;1.25;1.00;;;19.00;53.00;;;;;;5089798;28;20034;-34
2021/03/05 05:44:43;;;;;;;1.30;0.80;;;18.90;53.40;;;;;;5094039;28;20729;-34
2021/03/05 05:47:11;;;;;;;1.05;0.70;;;18.90;53.00;;;;;;5100532;28;20032;-34
2021/03/05 05:49:38;;;;;;;1.42;1.00;;;18.90;52.90;;;;;;5073574;28;20051;-34
2021/03/05 05:52:04;;;;;;;1.40;0.80;;;18.90;53.00;;;;;;5079336;28;20031;-34
2021/03/05 05:54:31;;;;;;;0.70;0.53;;;18.90;53.00;;;;;;5076610;28;20064;-34
2021/03/05 05:56:57;;;;;;;1.13;0.95;;;18.90;52.90;;;;;;5071898;28;20268;-39
2021/03/05 05:59:26;;;;;;;1.52;0.90;;;18.90;53.10;;;;;;5075491;28;20028;-34
2021/03/05 06:01:56;;;;;;;0.90;0.77;;;18.90;53.00;;;;;;5078992;28;20110;-34
2021/03/05 06:04:23;;;;;;;1.00;0.88;;;18.90;53.00;;;;;;5075787;28;20050;-34
2021/03/05 06:06:49;;;;;;;1.05;0.80;;;18.90;53.00;;;;;;5074042;28;20032;-34
2021/03/05 06:09:15;;;;;;;2.55;1.23;;;18.90;53.10;;;;;;5075642;28;20460;-34
2021/03/05 06:11:41;;;;;;;1.13;0.80;;;18.90;53.00;;;;;;5091966;28;20092;-34
2021/03/05 06:14:11;;;;;;;1.83;1.07;;;18.80;53.00;;;;;;5096963;28;20086;-33
2021/03/05 06:16:54;;;;;;;1.45;0.88;;;18.80;53.00;;;;;;5088152;28;20035;-34
2021/03/05 06:19:22;;;;;;;1.10;0.95;;;18.80;53.00;;;;;;5071843;28;20055;-34
2021/03/05 06:21:48;;;;;;;1.40;1.00;;;18.80;53.00;;;;;;5093878;28;20032;-34
2021/03/05 06:24:14;;;;;;;1.67;1.00;;;18.80;53.00;;;;;;5090166;28;20035;-34
2021/03/05 06:26:55;;;;;;;1.20;0.90;;;18.80;53.10;;;;;;5076734;28;20385;-33
2021/03/05 06:29:25;;;;;;;0.68;0.68;;;18.80;53.10;;;;;;5092407;28;20039;-34
2021/03/05 06:31:59;;;;;;;1.67;0.90;;;18.80;52.90;;;;;;5093494;28;20035;-34
2021/03/05 06:34:25;;;;;;;1.05;0.90;;;18.80;53.00;;;;;;5086920;28;20095;-34
2021/03/05 06:37:02;;;;;;;1.27;0.88;;;18.70;52.90;;;;;;5087654;28;20028;-34
2021/03/05 06:39:28;;;;;;;1.17;0.85;;;18.70;52.90;;;;;;5091972;28;20036;-34
2021/03/05 06:42:05;;;;;;;1.20;1.00;;;18.70;52.90;;;;;;5086986;28;20028;-33
2021/03/05 06:44:32;;;;;;;1.30;0.75;;;18.70;53.00;;;;;;5092515;28;20033;-34
2021/03/05 06:47:15;;;;;;;1.27;0.90;;;18.70;53.00;;;;;;5073613;28;20042;-34
2021/03/05 06:49:43;;;;;;;1.40;0.80;;;18.70;53.00;;;;;;5093839;28;20024;-34
2021/03/05 06:52:10;;;;;;;2.17;0.90;;;18.70;53.10;;;;;;5094250;28;20046;-33
2021/03/05 06:54:38;;;;;;;1.52;1.10;;;18.70;53.00;;;;;;5088372;28;20515;-34
2021/03/05 06:57:05;;;;;;;1.33;0.90;;;18.70;53.10;;;;;;5091856;28;20099;-34
2021/03/05 06:59:36;;;;;;;1.55;0.90;;;18.70;53.10;;;;;;5091141;28;20036;-33
2021/03/05 07:02:02;;;;;;;1.65;1.05;;;18.60;52.90;;;;;;5088138;28;20020;-34
2021/03/05 07:04:47;;;;;;;1.37;0.87;;;18.60;53.10;;;;;;5093583;28;20036;-34
2021/03/05 07:07:14;;;;;;;1.63;1.00;;;18.60;53.00;;;;;;5083781;28;20377;-34
2021/03/05 07:09:41;;;;;;;1.67;0.95;;;18.60;53.00;;;;;;5094207;28;20033;-33
2021/03/05 07:12:17;;;;;;;1.13;1.00;;;18.60;53.00;;;;;;5092543;28;20031;-34
2021/03/05 07:14:47;;;;;;;1.20;0.90;;;18.60;52.90;;;;;;5085378;28;21190;-34
2021/03/05 07:17:14;;;;;;;1.25;1.00;;;18.60;53.10;;;;;;5093668;28;20040;-34
2021/03/05 07:19:40;;;;;;;2.08;1.10;;;18.60;52.90;;;;;;5100709;28;20024;-34
2021/03/05 07:22:09;;;;;;;1.33;0.80;;;18.60;53.10;;;;;;5086768;28;20166;-41
2021/03/05 07:24:39;;;;;;;1.40;0.80;;;18.50;53.00;;;;;;5069450;28;20042;-34
2021/03/05 07:27:07;;;;;;;1.70;1.08;;;18.50;53.00;;;;;;5097177;28;20046;-33
2021/03/05 07:29:38;;;;;;;1.02;0.90;;;18.50;53.10;;;;;;5088222;28;20036;-34
2021/03/05 07:32:08;;;;;;;1.58;1.27;;;18.50;53.00;;;;;;5089507;28;20020;-34
2021/03/05 07:34:56;;;;;;;1.35;0.88;;;18.50;53.70;;;;;;5084348;28;20040;-34
2021/03/05 07:37:29;;;;;;;1.48;1.15;;;18.50;53.00;;;;;;5070840;28;20025;-34
2021/03/05 07:39:57;;;;;;;1.80;1.10;;;18.50;53.00;;;;;;5075794;28;20024;-34
2021/03/05 07:42:24;;;;;;;;;;;18.50;53.00;;;;;;5078438;28;20024;-34
2021/03/05 07:44:50;;;;;;;1.83;1.00;;;18.50;53.00;;;;;;5073471;28;20014;-34
2021/03/05 07:47:16;;;;;;;2.08;1.10;;;18.40;52.90;;;;;;5072417;28;20025;-34
2021/03/05 07:49:43;;;;;;;1.17;1.05;;;18.40;53.00;;;;;;5067630;28;20036;-34
2021/03/05 07:52:09;;;;;;;1.25;1.08;;;18.40;53.00;;;;;;5073963;28;20048;-34
2021/03/05 07:54:41;;;;;;;1.45;1.08;;;18.40;53.20;;;;;;5091297;28;20663;-33
2021/03/05 07:57:28;;;;;;;1.30;1.00;;;18.40;53.10;;;;;;5083897;28;20091;-33
2021/03/05 07:59:56;;;;;;;1.55;1.10;;;18.40;53.00;;;;;;5073800;28;20169;-34
2021/03/05 08:02:22;;;;;;;1.92;1.17;;;18.40;53.10;;;;;;5086500;28;20020;-34
2021/03/05 08:05:04;;;;;;;1.80;1.17;;;18.40;53.20;;;;;;5070140;28;20023;-33
2021/03/05 08:07:32;;;;;;;1.95;1.25;;;18.30;52.90;;;;;;5090002;28;20147;-34
2021/03/05 08:09:58;;;;;;;1.42;0.88;;;18.30;53.20;;;;;;5074486;28;20114;-34
2021/03/05 08:12:45;;;;;;;1.25;0.95;;;18.30;53.00;;;;;;5090162;28;20024;-35
2021/03/05 08:15:11;;;;;;;1.75;1.10;;;18.30;53.00;;;;;;5099853;28;20139;-33
2021/03/05 08:17:41;;;;;;;1.20;1.10;;;18.30;53.10;;;;;;5088815;28;20108;-33
2021/03/05 08:20:08;;;;;;;1.75;1.20;;;18.30;53.10;;;;;;5081092;28;20036;-33
2021/03/05 08:23:03;;;;;;;1.52;1.10;;;18.30;53.10;;;;;;5093917;28;20103;-34
2021/03/05 08:25:38;;;;;;;1.20;1.00;;;18.30;53.20;;;;;;5089440;28;20074;-34
2021/03/05 08:28:06;;;;;;;1.83;1.20;;;18.30;53.00;;;;;;5099221;28;20035;-34
2021/03/05 08:30:35;;;;;;;2.08;1.20;;;18.20;53.10;;;;;;5088425;28;20020;-33
2021/03/05 08:33:05;;;;;;;2.03;1.25;;;18.20;53.10;;;;;;5085283;28;20115;-34
2021/03/05 08:35:31;;;;;;;1.65;1.25;;;18.20;53.10;;;;;;5084865;28;20037;-34
2021/03/05 08:38:07;;;;;;;1.70;1.30;;;18.20;53.10;;;;;;5088681;28;20032;-34
2021/03/05 08:40:55;;;;;;;1.98;1.08;;;18.20;53.00;;;;;;5084374;28;20032;-34
2021/03/05 08:43:22;;;;;;;;;;;18.20;53.00;;;;;;5087452;28;20421;-34
2021/03/05 08:45:55;;;;;;;1.70;1.13;;;18.20;53.10;;;;;;5092331;28;19912;-34
2021/03/05 08:48:40;;;;;;;1.20;1.10;;;18.10;53.00;;;;;;5087327;28;20112;-33
2021/03/05 08:51:09;;;;;;;1.30;1.10;;;18.10;53.20;;;;;;5087832;28;20039;-33
2021/03/05 08:53:40;;;;;;;1.40;1.00;;;18.10;53.00;;;;;;5091698;28;20054;-34
2021/03/05 08:56:06;;;;;;;1.95;1.20;;;18.10;53.10;;;;;;5089296;28;20040;-34
2021/03/05 08:58:33;;;;;;;1.35;1.10;;;18.10;53.20;;;;;;5092028;28;20040;-34
2021/03/05 09:00:59;;;;;;;1.15;1.00;;;18.10;53.10;;;;;;5080753;28;20029;-34
2021/03/05 09:03:25;;;;;;;2.20;1.15;;;18.10;53.20;;;;;;5073019;28;20056;-33
2021/03/05 09:05:52;;;;;;;1.87;1.10;;;18.10;53.10;;;;;;5086274;28;20480;-33
2021/03/05 09:08:23;;;;;;;2.13;1.30;;;18.10;53.10;;;;;;5085291;28;20048;-33
2021/03/05 09:11:03;;;;;;;2.50;1.10;;;18.10;53.20;;;;;;5094656;28;20017;-34
2021/03/05 09:13:31;;;;;;;3.10;1.30;;;18.00;53.20;;;;;;5081916;28;20072;-33
2021/03/05 09:15:59;;;;;;;1.80;1.30;;;18.00;53.20;;;;;;5084709;28;20032;-34
2021/03/05 09:18:29;;;;;;;1.13;1.00;;;18.00;53.10;;;;;;5086586;28;20039;-33
2021/03/05 09:20:57;;;;;;;1.83;1.27;;;18.00;53.20;;;;;;5095900;28;20035;-33
2021/03/05 09:23:33;;;;;;;1.73;1.20;;;18.00;53.10;;;;;;5103249;28;20477;-33
2021/03/05 09:26:00;;;;;;;1.77;1.27;;;17.90;53.20;;;;;;5093366;28;20123;-34
2021/03/05 09:28:27;;;;;;;2.10;1.38;;;18.00;53.20;;;;;;5089393;28;20034;-33
2021/03/05 09:30:56;;;;;;;1.40;0.98;;;17.90;53.20;;;;;;5091091;28;20036;-34
2021/03/05 09:33:30;;;;;;;1.58;1.10;;;17.90;53.10;;;;;;5083197;28;20092;-34
2021/03/05 09:36:12;;;;;;;1.58;1.25;;;17.90;53.10;;;;;;5092960;28;20040;-34
2021/03/05 09:38:40;;;;;;;2.28;1.50;;;17.90;53.20;;;;;;5097058;28;20024;-33
2021/03/05 09:41:13;;;;;;;1.92;1.10;;;17.90;53.20;;;;;;5097701;28;20024;-34
2021/03/05 09:43:39;;;;;;;1.40;1.00;;;17.90;53.20;;;;;;5084263;28;20062;-33
2021/03/05 09:46:22;;;;;;;1.10;1.00;;;17.90;53.20;;;;;;5092784;28;20028;-34
2021/03/05 09:48:48;;;;;;;1.20;0.90;;;17.90;53.30;;;;;;5097408;28;20157;-34
2021/03/05 09:51:14;;;;;;;2.20;1.60;;;17.80;53.20;;;;;;5097302;28;20024;-33
2021/03/05 09:54:01;;;;;;;1.15;1.00;;;17.80;53.20;;;;;;5089088;28;20308;-34
2021/03/05 09:56:27;;;;;;;1.90;1.10;;;17.90;53.30;;;;;;5092225;28;20035;-34
2021/03/05 09:58:58;;;;;;;1.33;0.98;;;17.80;53.30;;;;;;5084997;28;20038;-34
2021/03/05 10:01:25;;;;;;;1.67;1.23;;;17.80;53.30;;;;;;5092125;28;20020;-34
2021/03/05 10:03:57;;;;;;;1.60;1.10;;;17.80;53.30;;;;;;5087176;28;20032;-33
2021/03/05 10:06:24;;;;;;;1.48;1.17;;;17.80;53.30;;;;;;5087330;28;20029;-33
2021/03/05 10:09:20;;;;;;;1.80;1.38;;;17.80;53.30;;;;;;5093795;28;20057;-34
2021/03/05 10:11:46;;;;;;;1.85;1.30;;;17.80;53.30;;;;;;5092075;28;20028;-33
2021/03/05 10:14:23;;;;;;;1.95;1.30;;;17.80;53.40;;;;;;5090500;28;20056;-33
2021/03/05 10:16:49;;;;;;;1.55;1.35;;;17.80;53.40;;;;;;5095360;28;20028;-33
2021/03/05 10:19:18;;;;;;;2.22;1.42;;;17.70;53.40;;;;;;5094559;28;20032;-34
2021/03/05 10:21:54;;;;;;;1.52;1.20;;;17.70;53.30;;;;;;5073194;28;20029;-34
2021/03/05 10:24:27;;;;;;;1.48;1.00;;;17.70;53.30;;;;;;5087943;28;20021;-34
2021/03/05 10:27:19;;;;;;;1.27;0.93;;;17.70;53.40;;;;;;5093490;28;20093;-33
2021/03/05 10:29:46;;;;;;;1.90;1.40;;;17.70;53.30;;;;;;5091464;28;20039;-35
2021/03/05 10:32:16;;;;;;;1.98;1.17;;;17.70;53.30;;;;;;5096407;28;20036;-33
2021/03/05 10:34:44;;;;;;;1.33;1.20;;;17.70;53.40;;;;;;5087618;28;20028;-34
2021/03/05 10:37:10;;;;;;;1.45;1.30;;;17.60;53.20;;;;;;5093446;28;20434;-33
2021/03/05 10:39:37;;;;;;;1.75;1.17;;;17.60;53.30;;;;;;5068145;28;20021;-33
2021/03/05 10:42:09;;;;;;;1.45;1.17;;;17.60;53.40;;;;;;5089462;28;20507;-34
2021/03/05 10:44:35;;;;;;;1.77;1.30;;;17.60;53.50;;;;;;5083258;28;20042;-33
2021/03/05 10:47:06;;;;;;;2.17;1.13;;;17.60;53.40;;;;;;5092294;28;20024;-33
2021/03/05 10:49:33;;;;;;;1.15;1.05;;;17.60;53.40;;;;;;5094365;28;20074;-33
2021/03/05 10:51:59;;;;;;;2.20;1.13;;;17.60;53.40;;;;;;5095831;28;20489;-33
2021/03/05 10:54:26;;;;;;;1.60;1.10;;;17.60;53.40;;;;;;5093067;28;20707;-33
2021/03/05 10:56:53;;;;;;;2.10;1.27;;;17.50;53.40;;;;;;5071526;28;20012;-41
2021/03/05 10:59:20;;;;;;;2.22;1.40;;;17.60;53.40;;;;;;5093202;28;20047;-33
2021/03/05 11:01:46;;;;;;;1.80;1.20;;;17.50;53.50;;;;;;5096334;28;20029;-33
2021/03/05 11:04:16;;;;;;;2.33;1.45;;;17.60;53.40;;;;;;5091057;28;20039;-33
2021/03/05 11:06:46;;;;;;;1.80;1.38;;;17.50;53.50;;;;;;5091823;28;20817;-34
2021/03/05 11:09:13;;;;;;;1.75;1.35;;;17.50;53.40;;;;;;5090047;28;20074;-33
2021/03/05 11:11:40;;;;;;;1.77;1.20;;;17.50;53.40;;;;;;5093351;28;20623;-34
2021/03/05 11:14:06;;;;;;;1.35;0.98;;;17.50;53.50;;;;;;5073518;28;20094;-33
2021/03/05 11:16:33;;;;;;;1.85;1.38;;;17.40;53.40;;;;;;5093050;28;20035;-33
2021/03/05 11:18:59;;;;;;;1.48;1.20;;;17.40;53.40;;;;;;5071042;28;20028;-33
2021/03/05 11:21:25;;;;;;;1.30;1.10;;;17.40;53.40;;;;;;5069828;28;20115;-34
2021/03/05 11:23:53;;;;;;;1.88;1.10;;;17.40;53.40;;;;;;5091839;28;20036;-34
2021/03/05 11:26:20;;;;;;;2.05;1.02;;;17.40;53.50;;;;;;5090088;28;20020;-34
2021/03/05 11:28:46;;;;;;;1.58;1.15;;;17.40;53.50;;;;;;5095436;28;20036;-34
2021/03/05 11:31:12;;;;;;;1.67;1.42;;;17.40;53.40;;;;;;5089599;28;20687;-33
2021/03/05 11:33:39;;;;;;;2.28;1.15;;;17.40;53.50;;;;;;5088655;28;20032;-34
2021/03/05 11:36:06;;;;;;;4.20;1.30;;;17.40;53.40;;;;;;5086550;28;20618;-34
2021/03/05 11:38:33;;;;;;;2.10;1.30;;;17.40;53.40;;;;;;5088859;28;20422;-34
2021/03/05 11:40:59;;;;;;;1.83;1.10;;;17.30;53.40;;;;;;5088737;28;20792;-34
2021/03/05 11:43:26;;;;;;;1.65;1.00;;;17.40;53.40;;;;;;5095937;28;20032;-34
2021/03/05 11:45:52;;;;;;;1.70;1.15;;;17.40;53.50;;;;;;5069159;28;20036;-34
2021/03/05 11:48:18;;;;;;;1.45;1.17;;;17.30;53.40;;;;;;5091911;28;20031;-34
2021/03/05 11:50:44;;;;;;;1.50;1.10;;;17.30;53.40;;;;;;5088155;28;20089;-33
2021/03/05 11:53:10;;;;;;;1.08;1.00;;;17.30;53.50;;;;;;5074228;28;20058;-34
2021/03/05 11:55:37;;;;;;;2.72;1.30;;;17.30;53.40;;;;;;5085206;28;20056;-34
2021/03/05 11:58:03;;;;;;;1.65;1.15;;;17.30;53.50;;;;;;5084768;28;21398;-34
2021/03/05 12:00:29;;;;;;;1.42;1.17;;;17.30;53.50;;;;;;5094620;28;20028;-34
2021/03/05 12:02:55;;;;;;;1.35;1.15;;;17.30;53.50;;;;;;5087220;28;20043;-34
2021/03/05 12:05:22;;;;;;;2.22;1.30;;;17.30;53.40;;;;;;5085663;28;20096;-34
2021/03/05 12:07:48;;;;;;;2.05;1.10;;;17.20;53.40;;;;;;5092278;28;20048;-34
2021/03/05 12:10:15;;;;;;;1.67;1.20;;;17.20;53.40;;;;;;5091458;28;20032;-34
2021/03/05 12:12:41;;;;;;;1.65;1.10;;;17.20;53.40;;;;;;5089753;28;20017;-33
2021/03/05 12:15:07;;;;;;;2.00;1.10;;;17.20;53.40;;;;;;5087358;28;20101;-34
2021/03/05 12:17:37;;;;;;;1.83;1.13;;;17.20;53.50;;;;;;5087440;28;20493;-34
2021/03/05 12:20:04;;;;;;;1.42;1.10;;;17.20;53.40;;;;;;5089826;28;20028;-33
2021/03/05 12:22:30;;;;;;;1.60;1.08;;;17.20;53.40;;;;;;5089170;28;20020;-33
2021/03/05 12:24:57;;;;;;;1.42;1.20;;;17.20;53.40;;;;;;5088539;28;20028;-33
2021/03/05 12:27:26;;;;;;;1.60;1.17;;;17.20;53.40;;;;;;5080250;28;20044;-34
2021/03/05 12:30:02;;;;;;;1.52;1.15;;;17.10;53.40;;;;;;5083597;28;20039;-33
2021/03/05 12:32:28;;;;;;;1.63;1.15;;;17.10;53.30;;;;;;5070649;28;20028;-33
2021/03/05 12:34:57;;;;;;;1.83;1.10;;;17.10;53.40;;;;;;5089590;28;20546;-33
2021/03/05 12:37:23;;;;;;;1.45;0.90;;;17.10;53.40;;;;;;5093203;28;20028;-33
2021/03/05 12:39:50;;;;;;;1.27;1.00;;;17.10;53.40;;;;;;5087873;28;20032;-33
2021/03/05 12:42:16;;;;;;;1.30;0.98;;;17.10;53.40;;;;;;5092511;28;20035;-34
2021/03/05 12:44:42;;;;;;;2.08;1.30;;;17.10;53.30;;;;;;5089266;28;20016;-33
2021/03/05 12:47:08;;;;;;;1.40;1.10;;;17.10;53.40;;;;;;5088839;28;20039;-33
2021/03/05 12:49:34;;;;;;;1.27;1.02;;;17.00;53.40;;;;;;5082324;28;20032;-34
2021/03/05 12:52:01;;;;;;;3.33;1.13;;;17.00;53.50;;;;;;5086581;28;20662;-33
2021/03/05 12:54:27;;;;;;;1.35;1.05;;;17.00;53.40;;;;;;5085693;28;20040;-35
2021/03/05 12:56:53;;;;;;;1.38;1.17;;;17.00;53.50;;;;;;5094565;28;20037;-34